createdAt,value
2022-10-12T00:00:44.367Z,7.03
2022-10-12T00:03:13.281Z,7.10
2022-10-12T00:05:40.024Z,12.50
2022-10-12T00:08:06.773Z,9.30
2022-10-12T00:10:33.373Z,9.70
2022-10-12T00:13:00.162Z,8.33
2022-10-12T00:15:26.786Z,8.23
2022-10-12T00:17:53.549Z,7.87
2022-10-12T00:20:20.117Z,13.13
2022-10-12T00:22:46.718Z,9.30
2022-10-12T00:25:13.220Z,7.63
2022-10-12T00:27:40.170Z,7.70
2022-10-12T00:30:07.231Z,10.47
2022-10-12T00:32:33.733Z,7.23
2022-10-12T00:35:00.432Z,10.80
2022-10-12T00:37:27.099Z,9.07
2022-10-12T00:39:53.669Z,6.67
2022-10-12T00:42:21.039Z,9.60
2022-10-12T00:44:48.454Z,7.07
2022-10-12T00:47:17.297Z,6.00
2022-10-12T00:49:44.689Z,7.67
2022-10-12T00:52:11.734Z,6.47
2022-10-12T00:54:40.819Z,8.30
2022-10-12T00:57:07.367Z,7.47
2022-10-12T00:59:34.689Z,6.53
2022-10-12T01:02:01.200Z,5.67
2022-10-12T01:04:27.792Z,7.27
2022-10-12T01:06:54.483Z,7.97
2022-10-12T01:09:21.492Z,10.03
2022-10-12T01:11:48.137Z,6.30
2022-10-12T01:14:14.948Z,5.40
2022-10-12T01:16:44.083Z,6.23
2022-10-12T01:19:10.560Z,7.07
2022-10-12T01:21:37.969Z,7.30
2022-10-12T01:24:13.903Z,7.97
2022-10-12T01:26:40.527Z,3.67
2022-10-12T01:29:26.095Z,7.13
2022-10-12T01:31:53.425Z,5.83
2022-10-12T01:34:22.507Z,5.47
2022-10-12T01:36:49.427Z,11.63
2022-10-12T01:39:17.961Z,7.23
2022-10-12T01:41:45.102Z,7.50
2022-10-12T01:44:11.588Z,7.77
2022-10-12T01:46:42.016Z,6.13
2022-10-12T01:49:08.626Z,7.97
2022-10-12T01:51:35.101Z,5.90
2022-10-12T01:54:09.295Z,4.13
2022-10-12T01:56:40.747Z,4.23
2022-10-12T01:59:30.559Z,5.03
2022-10-12T02:01:57.994Z,6.43
2022-10-12T02:04:26.513Z,6.97
2022-10-12T02:06:53.987Z,7.03
2022-10-12T02:09:26.970Z,8.40
2022-10-12T02:11:57.345Z,6.17
2022-10-12T02:14:26.038Z,4.00
2022-10-12T02:16:59.137Z,6.60
2022-10-12T02:19:26.622Z,4.33
2022-10-12T02:21:53.961Z,7.33
2022-10-12T02:24:21.105Z,6.03
2022-10-12T02:26:47.973Z,4.93
2022-10-12T02:29:16.390Z,6.37
2022-10-12T02:31:45.743Z,5.97
2022-10-12T02:34:19.132Z,5.87
2022-10-12T02:36:53.628Z,5.67
2022-10-12T02:39:25.486Z,7.90
2022-10-12T02:41:52.703Z,5.00
2022-10-12T02:44:23.767Z,7.43
2022-10-12T02:46:50.481Z,5.27
2022-10-12T02:49:17.448Z,5.70
2022-10-12T02:51:44.144Z,5.70
2022-10-12T02:54:10.738Z,4.43
2022-10-12T02:56:46.273Z,4.83
2022-10-12T02:59:13.591Z,6.23
2022-10-12T03:01:40.268Z,7.23
2022-10-12T03:04:06.921Z,4.13
2022-10-12T03:06:33.527Z,6.07
2022-10-12T03:09:00.156Z,5.20
2022-10-12T03:11:26.735Z,5.43
2022-10-12T03:13:55.950Z,5.93
2022-10-12T03:16:22.602Z,8.07
2022-10-12T03:18:49.220Z,8.97
2022-10-12T03:21:15.866Z,9.10
2022-10-12T03:23:42.482Z,5.83
2022-10-12T03:26:09.072Z,5.70
2022-10-12T03:28:35.823Z,4.23
2022-10-12T03:31:02.544Z,6.57
2022-10-12T03:33:30.368Z,6.03
2022-10-12T03:35:57.220Z,5.93
2022-10-12T03:38:24.093Z,5.90
2022-10-12T03:40:52.034Z,6.80
2022-10-12T03:43:18.570Z,4.70
2022-10-12T03:45:45.121Z,4.57
2022-10-12T03:48:11.715Z,5.23
2022-10-12T03:50:38.298Z,5.77
2022-10-12T03:53:05.155Z,6.77
2022-10-12T03:55:32.049Z,10.27
2022-10-12T03:57:58.648Z,6.67
2022-10-12T04:00:25.258Z,6.83
2022-10-12T04:02:53.010Z,7.57
2022-10-12T04:05:19.525Z,6.43
2022-10-12T04:07:46.738Z,10.50
2022-10-12T04:10:13.377Z,5.70
2022-10-12T04:12:40.041Z,5.57
2022-10-12T04:15:06.848Z,5.03
2022-10-12T04:17:33.584Z,4.30
2022-10-12T04:20:01.092Z,5.87
2022-10-12T04:22:27.850Z,7.83
2022-10-12T04:24:54.498Z,5.60
2022-10-12T04:27:21.074Z,7.73
2022-10-12T04:29:47.711Z,4.67
2022-10-12T04:32:14.353Z,9.27
2022-10-12T04:34:41.028Z,8.70
2022-10-12T04:37:07.836Z,8.73
2022-10-12T04:39:34.706Z,5.47
2022-10-12T04:42:01.220Z,5.90
2022-10-12T04:44:31.997Z,9.47
2022-10-12T04:46:59.644Z,6.37
2022-10-12T04:49:26.286Z,6.23
2022-10-12T04:51:52.793Z,4.60
2022-10-12T04:54:19.760Z,6.93
2022-10-12T04:56:48.084Z,9.97
2022-10-12T04:59:15.037Z,6.03
2022-10-12T05:01:41.885Z,10.40
2022-10-12T05:04:08.560Z,8.60
2022-10-12T05:06:35.218Z,9.23
2022-10-12T05:09:02.094Z,6.90
2022-10-12T05:11:28.899Z,5.63
2022-10-12T05:13:55.447Z,10.27
2022-10-12T05:16:22.408Z,6.67
2022-10-12T05:18:49.126Z,6.80
2022-10-12T05:21:15.759Z,11.73
2022-10-12T05:23:42.364Z,10.33
2022-10-12T05:26:08.938Z,9.50
2022-10-12T05:28:40.853Z,11.27
2022-10-12T05:31:08.090Z,12.13
2022-10-12T05:33:34.643Z,7.70
2022-10-12T05:36:01.337Z,8.47
2022-10-12T05:38:27.891Z,14.27
2022-10-12T05:41:00.119Z,8.97
2022-10-12T05:43:27.125Z,14.53
2022-10-12T05:45:53.730Z,12.63
2022-10-12T05:48:20.557Z,7.90
2022-10-12T05:50:47.250Z,9.70
2022-10-12T05:53:13.934Z,7.27
2022-10-12T05:55:40.528Z,8.83
2022-10-12T05:58:07.086Z,7.47
2022-10-12T06:00:33.660Z,9.37
2022-10-12T06:03:00.187Z,6.10
2022-10-12T06:05:26.759Z,8.77
2022-10-12T06:07:53.409Z,9.90
2022-10-12T06:10:20.066Z,8.43
2022-10-12T06:12:46.616Z,11.63
2022-10-12T06:15:13.195Z,10.60
2022-10-12T06:17:39.877Z,9.97
2022-10-12T06:20:06.743Z,7.27
2022-10-12T06:22:33.400Z,7.87
2022-10-12T06:24:59.960Z,10.60
2022-10-12T06:27:26.558Z,12.13
2022-10-12T06:29:53.169Z,11.10
2022-10-12T06:32:19.778Z,11.23
2022-10-12T06:34:46.817Z,8.17
2022-10-12T06:37:37.019Z,12.33
2022-10-12T06:40:00.071Z,8.47
2022-10-12T06:42:26.660Z,8.23
2022-10-12T06:44:53.284Z,6.37
2022-10-12T06:47:19.969Z,12.73
2022-10-12T06:49:46.703Z,9.63
2022-10-12T06:52:13.223Z,9.07
2022-10-12T06:54:41.313Z,10.27
2022-10-12T06:57:08.016Z,12.67
2022-10-12T06:59:34.561Z,6.83
2022-10-12T07:02:01.216Z,10.27
2022-10-12T07:04:27.925Z,9.07
2022-10-12T07:06:54.457Z,9.83
2022-10-12T07:09:21.873Z,11.23
2022-10-12T07:11:48.481Z,12.17
2022-10-12T07:14:15.360Z,12.47
2022-10-12T07:16:41.935Z,10.60
2022-10-12T07:19:08.576Z,11.03
2022-10-12T07:21:35.241Z,8.37
2022-10-12T07:24:04.343Z,6.97
2022-10-12T07:26:31.796Z,10.50
2022-10-12T07:29:02.355Z,11.47
2022-10-12T07:31:29.070Z,8.10
2022-10-12T07:33:55.699Z,6.20
2022-10-12T07:36:23.672Z,6.30
2022-10-12T07:38:51.237Z,6.77
2022-10-12T07:41:17.954Z,10.93
2022-10-12T07:43:44.845Z,8.40
2022-10-12T07:46:11.558Z,8.50
2022-10-12T07:48:38.283Z,9.23
2022-10-12T07:51:05.422Z,4.63
2022-10-12T07:53:33.270Z,5.67
2022-10-12T07:56:03.090Z,6.13
2022-10-12T07:58:29.680Z,5.80
2022-10-12T08:00:56.687Z,8.83
2022-10-12T08:03:23.250Z,10.17
2022-10-12T08:05:49.879Z,13.40
2022-10-12T08:08:16.502Z,7.53
2022-10-12T08:10:43.201Z,6.20
2022-10-12T08:13:09.756Z,8.20
2022-10-12T08:15:36.339Z,5.13
2022-10-12T08:18:02.875Z,6.07
2022-10-12T08:20:29.445Z,7.13
2022-10-12T08:22:56.073Z,7.03
2022-10-12T08:25:22.751Z,8.57
2022-10-12T08:27:49.277Z,5.63
2022-10-12T08:30:15.946Z,6.40
2022-10-12T08:32:42.465Z,7.93
2022-10-12T08:35:09.061Z,6.50
2022-10-12T08:37:35.684Z,8.80
2022-10-12T08:40:03.719Z,7.03
2022-10-12T08:42:45.589Z,5.23
2022-10-12T08:45:28.724Z,7.47
2022-10-12T08:47:58.496Z,6.93
2022-10-12T08:50:32.304Z,5.47
2022-10-12T08:53:01.701Z,5.27
2022-10-12T08:55:35.623Z,5.27
2022-10-12T08:58:02.498Z,4.00
2022-10-12T09:00:29.223Z,4.50
2022-10-12T09:03:02.240Z,3.77
2022-10-12T09:05:30.841Z,3.43
2022-10-12T09:08:04.751Z,6.40
2022-10-12T09:10:34.862Z,5.70
2022-10-12T09:13:01.359Z,7.00
2022-10-12T09:15:29.214Z,4.47
2022-10-12T09:17:56.270Z,4.73
2022-10-12T09:20:35.403Z,3.73
2022-10-12T09:23:03.659Z,5.90
2022-10-12T09:25:30.325Z,5.07
2022-10-12T09:27:58.145Z,4.87
2022-10-12T09:30:28.676Z,5.33
2022-10-12T09:33:04.572Z,4.93
2022-10-12T09:35:31.122Z,3.63
2022-10-12T09:37:57.677Z,4.00
2022-10-12T09:40:25.562Z,5.03
2022-10-12T09:42:52.450Z,5.20
2022-10-12T09:45:19.627Z,5.20
2022-10-12T09:48:06.525Z,8.97
2022-10-12T09:50:40.045Z,4.13
2022-10-12T09:53:13.742Z,4.43
2022-10-12T09:55:40.269Z,8.07
2022-10-12T09:58:12.517Z,4.93
2022-10-12T10:00:39.133Z,5.13
2022-10-12T10:03:05.663Z,2.93
2022-10-12T10:05:33.449Z,5.73
2022-10-12T10:08:14.743Z,5.67
2022-10-12T10:10:48.133Z,4.77
2022-10-12T10:13:14.784Z,4.63
2022-10-12T10:15:41.279Z,4.40
2022-10-12T10:18:26.650Z,5.37
2022-10-12T10:20:53.631Z,3.30
2022-10-12T10:23:27.728Z,2.80
2022-10-12T10:26:07.538Z,3.73
2022-10-12T10:28:34.775Z,4.10
2022-10-12T10:31:02.905Z,3.87
2022-10-12T10:33:30.299Z,2.97
2022-10-12T10:35:56.801Z,2.73
2022-10-12T10:38:23.572Z,3.97
2022-10-12T10:40:50.565Z,1.70
2022-10-12T10:43:35.165Z,2.37
2022-10-12T10:46:02.245Z,2.00
2022-10-12T10:48:30.528Z,3.47
2022-10-12T10:51:01.093Z,3.07
2022-10-12T10:53:30.251Z,3.57
2022-10-12T10:56:08.193Z,8.00
2022-10-12T10:58:36.290Z,5.20
2022-10-12T11:01:26.118Z,4.90
2022-10-12T11:03:58.259Z,3.43
2022-10-12T11:06:41.087Z,2.60
2022-10-12T11:09:10.717Z,2.73
2022-10-12T11:11:37.219Z,4.83
2022-10-12T11:14:12.618Z,4.17
2022-10-12T11:16:56.071Z,2.07
2022-10-12T11:19:45.831Z,3.60
2022-10-12T11:22:15.790Z,2.70
2022-10-12T11:24:50.661Z,2.73
2022-10-12T11:27:17.267Z,3.03
2022-10-12T11:29:43.853Z,3.53
2022-10-12T11:32:24.695Z,1.63
2022-10-12T11:35:14.617Z,4.27
2022-10-12T11:37:45.583Z,3.87
2022-10-12T11:40:27.055Z,3.60
2022-10-12T11:43:08.245Z,4.80
2022-10-12T11:45:36.708Z,4.23
2022-10-12T11:48:05.374Z,4.30
2022-10-12T11:50:38.852Z,2.93
2022-10-12T11:53:08.843Z,3.23
2022-10-12T11:55:42.434Z,5.33
2022-10-12T11:58:13.731Z,4.03
2022-10-12T12:00:59.349Z,4.13
2022-10-12T12:03:39.652Z,6.07
2022-10-12T12:06:25.159Z,7.83
2022-10-12T12:08:51.711Z,4.03
2022-10-12T12:11:19.578Z,4.90
2022-10-12T12:13:46.215Z,5.50
2022-10-12T12:16:12.759Z,9.30
2022-10-12T12:18:58.165Z,6.53
2022-10-12T12:21:24.889Z,6.07
2022-10-12T12:23:52.719Z,10.33
2022-10-12T12:26:20.185Z,9.70
2022-10-12T12:28:47.695Z,7.47
2022-10-12T12:31:14.386Z,5.50
2022-10-12T12:33:42.441Z,6.03
2022-10-12T12:36:10.106Z,5.67
2022-10-12T12:38:37.954Z,2.97
2022-10-12T12:41:08.351Z,3.97
2022-10-12T12:43:35.632Z,3.40
2022-10-12T12:46:06.414Z,4.53
2022-10-12T12:48:39.029Z,2.93
2022-10-12T12:51:25.859Z,4.60
2022-10-12T12:53:52.454Z,5.63
2022-10-12T12:56:21.857Z,5.30
2022-10-12T12:59:01.513Z,5.27
2022-10-12T13:01:31.450Z,3.77
2022-10-12T13:04:10.547Z,5.77
2022-10-12T13:06:43.677Z,6.97
2022-10-12T13:09:16.559Z,4.50
2022-10-12T13:11:50.059Z,4.00
2022-10-12T13:14:16.932Z,7.17
2022-10-12T13:19:34.136Z,5.57
2022-10-12T13:22:02.948Z,4.97
2022-10-12T13:24:44.691Z,6.63
2022-10-12T13:27:23.754Z,6.53
2022-10-12T13:30:00.599Z,7.27
2022-10-12T13:32:45.259Z,3.77
2022-10-12T13:35:13.482Z,7.63
2022-10-12T13:37:40.057Z,4.07
2022-10-12T13:40:26.631Z,6.97
2022-10-12T13:42:53.221Z,8.40
2022-10-12T13:45:19.978Z,5.67
2022-10-12T13:47:46.615Z,5.73
2022-10-12T13:50:18.330Z,5.07
2022-10-12T13:52:53.156Z,7.47
2022-10-12T13:55:21.543Z,5.47
2022-10-12T13:57:50.229Z,5.83
2022-10-12T14:00:17.003Z,3.43
2022-10-12T14:02:44.175Z,4.77
2022-10-12T14:05:18.077Z,4.63
2022-10-12T14:07:44.741Z,8.43
2022-10-12T14:10:25.125Z,4.73
2022-10-12T14:12:52.724Z,4.47
2022-10-12T14:15:19.903Z,6.40
2022-10-12T14:17:48.688Z,6.67
2022-10-12T14:20:37.435Z,7.13
2022-10-12T14:23:13.991Z,6.10
2022-10-12T14:25:51.549Z,5.37
2022-10-12T14:28:21.898Z,7.27
2022-10-12T14:30:51.997Z,6.90
2022-10-12T14:33:18.629Z,8.27
2022-10-12T14:35:48.098Z,9.00
2022-10-12T14:38:33.611Z,6.43
2022-10-12T14:41:20.228Z,8.13
2022-10-12T14:43:51.511Z,7.73
2022-10-12T14:46:18.364Z,7.43
2022-10-12T14:48:44.960Z,10.40
2022-10-12T14:51:15.084Z,10.47
2022-10-12T14:53:44.302Z,9.67
2022-10-12T14:56:11.007Z,10.97
2022-10-12T14:58:38.048Z,9.87
2022-10-12T15:01:04.711Z,7.87
2022-10-12T15:03:31.761Z,6.07
2022-10-12T15:05:58.929Z,9.70
2022-10-12T15:08:25.810Z,9.50
2022-10-12T15:10:56.479Z,9.23
2022-10-12T15:13:23.603Z,9.50
2022-10-12T15:15:50.352Z,11.67
2022-10-12T15:18:16.931Z,9.17
2022-10-12T15:20:49.025Z,11.53
2022-10-12T15:23:17.321Z,16.17
2022-10-12T15:25:56.316Z,13.90
2022-10-12T15:28:23.163Z,9.93
2022-10-12T15:31:15.814Z,11.93
2022-10-12T15:33:37.146Z,12.70
2022-10-12T15:36:04.056Z,12.70
2022-10-12T15:38:30.650Z,13.33
2022-10-12T15:40:58.441Z,14.97
2022-10-12T15:43:25.511Z,10.40
2022-10-12T15:45:52.267Z,11.27
2022-10-12T15:48:18.982Z,13.23
2022-10-12T15:50:46.266Z,14.80
2022-10-12T15:53:16.834Z,13.47
2022-10-12T15:55:44.659Z,18.43
2022-10-12T15:58:11.185Z,17.00
2022-10-12T16:00:38.131Z,12.93
2022-10-12T16:03:06.090Z,13.87
2022-10-12T16:05:33.775Z,13.53
2022-10-12T16:08:00.899Z,13.10
2022-10-12T16:10:32.996Z,13.23
2022-10-12T16:13:01.044Z,10.03
2022-10-12T16:15:29.588Z,14.93
2022-10-12T16:17:56.435Z,12.30
2022-10-12T16:20:23.209Z,14.53
2022-10-12T16:22:50.171Z,13.60
2022-10-12T16:25:17.567Z,12.70
2022-10-12T16:27:44.750Z,50.07
2022-10-12T16:30:11.714Z,33.23
2022-10-12T16:32:38.480Z,21.20
2022-10-12T16:35:05.549Z,17.43
2022-10-12T16:37:32.243Z,17.47
2022-10-12T16:40:00.373Z,21.43
2022-10-12T16:42:29.515Z,15.27
2022-10-12T16:44:55.997Z,15.43
2022-10-12T16:47:22.694Z,18.57
2022-10-12T16:49:49.556Z,21.37
2022-10-12T16:52:16.530Z,19.60
2022-10-12T16:54:43.564Z,25.97
2022-10-12T16:57:10.189Z,23.37
2022-10-12T16:59:36.717Z,23.47
2022-10-12T17:02:05.726Z,21.53
2022-10-12T17:04:32.465Z,26.57
2022-10-12T17:06:59.036Z,26.03
2022-10-12T17:09:26.895Z,23.30
2022-10-12T17:11:53.858Z,23.10
2022-10-12T17:14:20.513Z,28.03
2022-10-12T17:16:49.769Z,23.50
2022-10-12T17:19:19.355Z,26.37
2022-10-12T17:21:49.833Z,23.30
2022-10-12T17:24:17.566Z,20.03
2022-10-12T17:26:44.351Z,22.83
2022-10-12T17:29:14.741Z,22.03
2022-10-12T17:31:41.597Z,19.63
2022-10-12T17:34:09.153Z,20.23
2022-10-12T17:36:41.160Z,16.23
2022-10-12T17:39:08.795Z,13.63
2022-10-12T17:41:35.997Z,21.27
2022-10-12T17:44:03.903Z,17.93
2022-10-12T17:46:31.553Z,16.17
2022-10-12T17:48:59.413Z,20.87
2022-10-12T17:51:26.795Z,16.77
2022-10-12T17:53:53.782Z,18.43
2022-10-12T17:56:20.833Z,26.90
2022-10-12T17:58:47.610Z,21.77
2022-10-12T18:01:16.082Z,18.77
2022-10-12T18:03:44.681Z,23.50
2022-10-12T18:06:13.149Z,17.10
2022-10-12T18:08:40.928Z,17.40
2022-10-12T18:11:07.830Z,18.23
2022-10-12T18:13:35.857Z,17.40
2022-10-12T18:16:03.197Z,19.30
2022-10-12T18:18:29.826Z,15.70
2022-10-12T18:20:56.440Z,20.80
2022-10-12T18:23:24.419Z,16.80
2022-10-12T18:25:51.216Z,19.23
2022-10-12T18:28:18.279Z,18.47
2022-10-12T18:30:48.703Z,20.90
2022-10-12T18:33:16.595Z,18.13
2022-10-12T18:35:43.259Z,25.60
2022-10-12T18:38:09.949Z,17.93
2022-10-12T18:40:41.905Z,17.37
2022-10-12T18:43:10.490Z,15.50
2022-10-12T18:45:41.310Z,19.63
2022-10-12T18:48:08.111Z,16.87
2022-10-12T18:50:35.421Z,18.97
2022-10-12T18:53:03.054Z,23.97
2022-10-12T18:55:29.700Z,21.37
2022-10-12T18:57:56.388Z,25.73
2022-10-12T19:00:23.714Z,24.30
2022-10-12T19:02:50.709Z,24.83
2022-10-12T19:05:17.584Z,24.47
2022-10-12T19:07:44.151Z,25.03
2022-10-12T19:10:11.732Z,23.50
2022-10-12T19:12:45.485Z,25.43
2022-10-12T19:15:12.517Z,138.40
2022-10-12T19:17:39.153Z,36.37
2022-10-12T19:20:06.205Z,33.93
2022-10-12T19:22:33.302Z,26.23
2022-10-12T19:24:59.960Z,26.37
2022-10-12T19:27:26.841Z,27.87
2022-10-12T19:29:53.601Z,25.83
2022-10-12T19:32:20.419Z,35.13
2022-10-12T19:34:47.486Z,20.80
2022-10-12T19:37:14.748Z,22.77
2022-10-12T19:39:44.989Z,24.83
2022-10-12T19:42:12.198Z,29.90
2022-10-12T19:44:39.172Z,23.20
2022-10-12T19:47:06.194Z,24.73
2022-10-12T19:49:36.891Z,26.57
2022-10-12T19:52:04.757Z,26.50
2022-10-12T19:54:35.906Z,30.63
2022-10-12T19:57:03.907Z,28.37
2022-10-12T19:59:30.766Z,26.33
2022-10-12T20:01:57.314Z,28.87
2022-10-12T20:04:24.476Z,29.80
2022-10-12T20:06:51.582Z,28.30
2022-10-12T20:09:18.659Z,31.43
2022-10-12T20:11:47.797Z,27.90
2022-10-12T20:14:14.783Z,46.47
2022-10-12T20:16:42.757Z,31.33
2022-10-12T20:19:09.709Z,27.53
2022-10-12T20:21:39.282Z,40.70
2022-10-12T20:24:09.201Z,42.37
2022-10-12T20:26:35.855Z,34.03
2022-10-12T20:29:02.766Z,39.37
2022-10-12T20:31:29.723Z,32.20
2022-10-12T20:33:57.919Z,37.80
2022-10-12T20:36:25.512Z,29.63
2022-10-12T20:38:53.000Z,31.50
2022-10-12T20:41:21.651Z,31.90
2022-10-12T20:43:48.261Z,32.40
2022-10-12T20:46:15.531Z,30.13
2022-10-12T20:48:42.494Z,28.03
2022-10-12T20:51:10.845Z,30.20
2022-10-12T20:53:38.286Z,31.53
2022-10-12T20:56:05.714Z,27.17
2022-10-12T20:58:32.244Z,29.83
2022-10-12T21:01:02.345Z,27.07
2022-10-12T21:03:28.946Z,32.97
2022-10-12T21:05:55.481Z,28.43
2022-10-12T21:08:22.078Z,29.70
2022-10-12T21:10:48.627Z,34.83
2022-10-12T21:13:15.126Z,27.97
2022-10-12T21:15:49.131Z,29.40
2022-10-12T21:18:15.970Z,28.60
2022-10-12T21:20:42.511Z,24.37
2022-10-12T21:23:10.290Z,30.60
2022-10-12T21:25:36.786Z,33.07
2022-10-12T21:28:04.548Z,31.83
2022-10-12T21:30:31.096Z,34.70
2022-10-12T21:32:57.669Z,34.60
2022-10-12T21:35:24.244Z,35.00
2022-10-12T21:37:50.790Z,34.03
2022-10-12T21:40:17.272Z,38.10
2022-10-12T21:42:43.801Z,36.50
2022-10-12T21:45:10.336Z,39.27
2022-10-12T21:47:36.872Z,35.37
2022-10-12T21:50:08.116Z,36.90
2022-10-12T21:52:35.165Z,32.43
2022-10-12T21:55:01.792Z,34.20
2022-10-12T21:57:28.798Z,32.37
2022-10-12T21:59:55.376Z,39.07
2022-10-12T22:02:21.986Z,34.80
2022-10-12T22:04:48.474Z,35.47
2022-10-12T22:07:15.028Z,40.93
2022-10-12T22:09:43.929Z,43.60
2022-10-12T22:12:10.466Z,41.80
2022-10-12T22:14:37.031Z,41.10
2022-10-12T22:17:03.763Z,44.63
2022-10-12T22:19:32.279Z,40.30
2022-10-12T22:21:58.859Z,43.10
2022-10-12T22:24:27.603Z,47.03
2022-10-12T22:26:54.253Z,53.87
2022-10-12T22:29:20.866Z,58.27
2022-10-12T22:31:47.401Z,58.73
2022-10-12T22:34:15.540Z,67.17
2022-10-12T22:36:44.174Z,66.90
2022-10-12T22:39:10.797Z,60.83
2022-10-12T22:41:37.799Z,61.57
2022-10-12T22:44:04.482Z,65.70
2022-10-12T22:46:31.111Z,61.53
2022-10-12T22:48:57.696Z,62.43
2022-10-12T22:51:34.387Z,57.83
2022-10-12T22:54:00.974Z,59.77
2022-10-12T22:56:27.810Z,53.47
2022-10-12T22:58:57.580Z,50.27
2022-10-12T23:01:24.250Z,52.37
2022-10-12T23:03:50.764Z,43.20
2022-10-12T23:06:17.662Z,49.37
2022-10-12T23:08:44.209Z,50.57
2022-10-12T23:11:11.844Z,45.73
2022-10-12T23:13:38.399Z,44.60
2022-10-12T23:16:05.734Z,48.10
2022-10-12T23:18:33.443Z,42.60
2022-10-12T23:21:00.437Z,46.63
2022-10-12T23:23:26.903Z,41.93
2022-10-12T23:26:04.240Z,52.00
2022-10-12T23:28:30.912Z,46.37
2022-10-12T23:30:57.434Z,48.53
2022-10-12T23:33:24.068Z,50.80
2022-10-12T23:36:00.439Z,45.13
2022-10-12T23:38:28.170Z,42.83
2022-10-12T23:40:54.694Z,42.80
2022-10-12T23:43:21.269Z,50.00
2022-10-12T23:45:47.835Z,43.07
2022-10-12T23:48:14.389Z,47.73
2022-10-12T23:50:41.772Z,50.97
2022-10-12T23:53:08.383Z,51.13
2022-10-12T23:55:34.890Z,44.73
2022-10-12T23:58:01.550Z,45.10
